PWSweather.com
Personal Weather Stations
Station Observations
60DEGNUK
Firth, MossbankGB ZE2 9TF

FirthMossbankGB ZE2 9TF

Lat: 60.448922, Lon: -1.19346

Elevation: 60

Station Type: Watson

Latest ConditionsUpdated 8:50:00 PM GMT Wednesday, Apr 24, 2019
Currently Today's Max Today's Min Today's Average
Temperature 49.6°F9.8°C 59.7°F15.4°C 49.1°F9.5°C 52.9°F11.6°C
Dew Point 41.3°F5.2°C 42.6°F5.9°C 38.3°F3.5°C 40.6°F4.8°C
Winds 8.0 mph E12.9 kmh E 9.2 mph -14.8 kmh - - 5.3 mph 8.5 kmh
Wind Gusts 15.2 mph24.5 kmh 20.6 mph33.2 kmh - -
Humidity 73% 73% 51% 63%
Pressure 30.34 in1027.4 mb 30.48 in1032.2 mb 30.34 in1027.4 mb -
Hour Temp Dew Point Humidity Winds Wind Gusts Pressure Precip Precip Rate Daily Precip Total
08:50 PM 49.6°F9.8°C 41.3°F5.2°C 73% 8.0 mph E12.9 kmh E 15.2 mph24.5 kmh 30.34 in1027.4 mb 0.00 in0.0 mm 0.00 in0.0 mm 0.00 in0.0 mm
08:45 PM 49.6°F9.8°C 41.3°F5.2°C 73% 8.2 mph E13.2 kmh E 15.2 mph24.5 kmh 30.35 in1027.8 mb 0.00 in0.0 mm 0.00 in0.0 mm 0.00 in0.0 mm
08:40 PM 49.8°F9.9°C 41.2°F5.1°C 72% 8.5 mph ESE13.7 kmh ESE 15.2 mph24.5 kmh 30.35 in1027.8 mb 0.00 in0.0 mm 0.00 in0.0 mm 0.00 in0.0 mm
08:35 PM 50.0°F10.0°C 41.3°F5.2°C 72% 8.5 mph ESE13.7 kmh ESE 13.6 mph21.9 kmh 30.35 in1027.8 mb 0.00 in0.0 mm 0.00 in0.0 mm 0.00 in0.0 mm
08:30 PM 50.2°F10.1°C 41.5°F5.3°C 72% 7.9 mph E12.7 kmh E 13.6 mph21.9 kmh 30.35 in1027.8 mb 0.00 in0.0 mm 0.00 in0.0 mm 0.00 in0.0 mm
08:25 PM 50.2°F10.1°C 41.1°F5.1°C 71% 6.9 mph ESE11.1 kmh ESE 14.5 mph23.3 kmh 30.35 in1027.8 mb 0.00 in0.0 mm 0.00 in0.0 mm 0.00 in0.0 mm
08:20 PM 50.2°F10.1°C 41.1°F5.1°C 71% 6.1 mph E9.8 kmh E 14.5 mph23.3 kmh 30.36 in1028.1 mb 0.00 in0.0 mm 0.00 in0.0 mm 0.00 in0.0 mm
08:15 PM 50.2°F10.1°C 41.1°F5.1°C 71% 5.6 mph ESE9.0 kmh ESE 13.0 mph20.9 kmh 30.36 in1028.1 mb 0.00 in0.0 mm 0.00 in0.0 mm 0.00 in0.0 mm
08:10 PM 50.2°F10.1°C 41.5°F5.3°C 72% 5.7 mph SE9.2 kmh SE 13.6 mph21.9 kmh 30.36 in1028.1 mb 0.00 in0.0 mm 0.00 in0.0 mm 0.00 in0.0 mm
08:05 PM 50.0°F10.0°C 41.3°F5.2°C 72% 5.1 mph ESE8.2 kmh ESE 13.6 mph21.9 kmh 30.35 in1027.8 mb 0.00 in0.0 mm 0.00 in0.0 mm 0.00 in0.0 mm
08:00 PM 50.0°F10.0°C 41.3°F5.2°C 72% 5.0 mph E8.0 kmh E 12.1 mph19.5 kmh 30.36 in1028.1 mb 0.00 in0.0 mm 0.00 in0.0 mm 0.00 in0.0 mm
07:55 PM 50.0°F10.0°C 41.3°F5.2°C 72% 6.6 mph E10.6 kmh E 12.1 mph19.5 kmh 30.37 in1028.4 mb 0.00 in0.0 mm 0.00 in0.0 mm 0.00 in0.0 mm
07:50 PM 50.0°F10.0°C 41.0°F5.0°C 71% 7.2 mph E11.6 kmh E 12.1 mph19.5 kmh 30.36 in1028.1 mb 0.00 in0.0 mm 0.00 in0.0 mm 0.00 in0.0 mm
07:45 PM 50.0°F10.0°C 41.0°F5.0°C 71% 7.0 mph E11.3 kmh E 10.7 mph17.2 kmh 30.36 in1028.1 mb 0.00 in0.0 mm 0.00 in0.0 mm 0.00 in0.0 mm
07:40 PM 50.2°F10.1°C 41.1°F5.1°C 71% 6.8 mph E10.9 kmh E 10.7 mph17.2 kmh 30.36 in1028.1 mb 0.00 in0.0 mm 0.00 in0.0 mm 0.00 in0.0 mm
07:35 PM 50.2°F10.1°C 41.1°F5.1°C 71% 6.1 mph E9.8 kmh E 10.7 mph17.2 kmh 30.36 in1028.1 mb 0.00 in0.0 mm 0.00 in0.0 mm 0.00 in0.0 mm
07:30 PM 50.2°F10.1°C 41.1°F5.1°C 71% 6.1 mph E9.8 kmh E 10.7 mph17.2 kmh 30.36 in1028.1 mb 0.00 in0.0 mm 0.00 in0.0 mm 0.00 in0.0 mm
07:25 PM 50.4°F10.2°C 41.0°F5.0°C 70% 6.0 mph ESE9.7 kmh ESE 9.8 mph15.8 kmh 30.36 in1028.1 mb 0.00 in0.0 mm 0.00 in0.0 mm 0.00 in0.0 mm
07:20 PM 50.7°F10.4°C 41.3°F5.2°C 70% 5.4 mph ESE8.7 kmh ESE 9.8 mph15.8 kmh 30.36 in1028.1 mb 0.00 in0.0 mm 0.00 in0.0 mm 0.00 in0.0 mm
07:15 PM 50.9°F10.5°C 41.5°F5.3°C 70% 5.1 mph E8.2 kmh E 10.7 mph17.2 kmh 30.37 in1028.4 mb 0.00 in0.0 mm 0.00 in0.0 mm 0.00 in0.0 mm
07:10 PM 50.9°F10.5°C 41.5°F5.3°C 70% 5.2 mph ESE8.4 kmh ESE 13.0 mph20.9 kmh 30.36 in1028.1 mb 0.00 in0.0 mm 0.00 in0.0 mm 0.00 in0.0 mm
07:05 PM 50.7°F10.4°C 41.3°F5.2°C 70% 5.0 mph E8.0 kmh E 13.0 mph20.9 kmh 30.37 in1028.4 mb 0.00 in0.0 mm 0.00 in0.0 mm 0.00 in0.0 mm
07:00 PM 50.5°F10.3°C 41.5°F5.3°C 71% 4.5 mph E7.2 kmh E 12.1 mph19.5 kmh 30.36 in1028.1 mb 0.00 in0.0 mm 0.00 in0.0 mm 0.00 in0.0 mm
06:55 PM 50.5°F10.3°C 41.5°F5.3°C 71% 5.7 mph E9.2 kmh E 12.1 mph19.5 kmh 30.37 in1028.4 mb 0.00 in0.0 mm 0.00 in0.0 mm 0.00 in0.0 mm
06:50 PM 50.5°F10.3°C 41.1°F5.1°C 70% 6.7 mph E10.8 kmh E 11.4 mph18.3 kmh 30.36 in1028.1 mb 0.00 in0.0 mm 0.00 in0.0 mm 0.00 in0.0 mm
06:45 PM 50.5°F10.3°C 41.1°F5.1°C 70% 6.4 mph E10.3 kmh E 11.4 mph18.3 kmh 30.36 in1028.1 mb 0.00 in0.0 mm 0.00 in0.0 mm 0.00 in0.0 mm
06:40 PM 50.7°F10.4°C 41.3°F5.2°C 70% 6.2 mph E10.0 kmh E 10.7 mph17.2 kmh 30.36 in1028.1 mb 0.00 in0.0 mm 0.00 in0.0 mm 0.00 in0.0 mm
06:35 PM 50.9°F10.5°C 41.5°F5.3°C 70% 7.0 mph E11.3 kmh E 12.1 mph19.5 kmh 30.37 in1028.4 mb 0.00 in0.0 mm 0.00 in0.0 mm 0.00 in0.0 mm
06:30 PM 51.1°F10.6°C 41.6°F5.3°C 70% 6.6 mph E10.6 kmh E 12.1 mph19.5 kmh 30.37 in1028.4 mb 0.00 in0.0 mm 0.00 in0.0 mm 0.00 in0.0 mm
06:25 PM 51.3°F10.7°C 41.8°F5.4°C 70% 4.6 mph E7.4 kmh E 12.1 mph19.5 kmh 30.36 in1028.1 mb 0.00 in0.0 mm 0.00 in0.0 mm 0.00 in0.0 mm
06:20 PM 51.3°F10.7°C 41.8°F5.4°C 70% 4.3 mph E6.9 kmh E 10.7 mph17.2 kmh 30.36 in1028.1 mb 0.00 in0.0 mm 0.00 in0.0 mm 0.00 in0.0 mm
06:15 PM 51.3°F10.7°C 41.8°F5.4°C 70% 5.3 mph E8.5 kmh E 10.7 mph17.2 kmh 30.37 in1028.4 mb 0.00 in0.0 mm 0.00 in0.0 mm 0.00 in0.0 mm
06:10 PM 51.3°F10.7°C 41.8°F5.4°C 70% 5.8 mph E9.3 kmh E 9.8 mph15.8 kmh 30.37 in1028.4 mb 0.00 in0.0 mm 0.00 in0.0 mm 0.00 in0.0 mm
06:05 PM 51.3°F10.7°C 41.8°F5.4°C 70% 7.1 mph E11.4 kmh E 12.1 mph19.5 kmh 30.37 in1028.4 mb 0.00 in0.0 mm 0.00 in0.0 mm 0.00 in0.0 mm
06:00 PM 51.4°F10.8°C 41.6°F5.3°C 69% 7.5 mph E12.1 kmh E 12.1 mph19.5 kmh 30.37 in1028.4 mb 0.00 in0.0 mm 0.00 in0.0 mm 0.00 in0.0 mm
05:55 PM 51.8°F11.0°C 41.6°F5.3°C 68% 5.4 mph E8.7 kmh E 12.1 mph19.5 kmh 30.37 in1028.4 mb 0.00 in0.0 mm 0.00 in0.0 mm 0.00 in0.0 mm
05:50 PM 52.0°F11.1°C 41.4°F5.2°C 67% 4.4 mph E7.1 kmh E 12.1 mph19.5 kmh 30.37 in1028.4 mb 0.00 in0.0 mm 0.00 in0.0 mm 0.00 in0.0 mm
05:45 PM 52.2°F11.2°C 41.5°F5.3°C 67% 4.8 mph E7.7 kmh E 12.1 mph19.5 kmh 30.37 in1028.4 mb 0.00 in0.0 mm 0.00 in0.0 mm 0.00 in0.0 mm
05:40 PM 52.2°F11.2°C 41.2°F5.1°C 66% 5.0 mph E8.0 kmh E 9.8 mph15.8 kmh 30.38 in1028.8 mb 0.00 in0.0 mm 0.00 in0.0 mm 0.00 in0.0 mm
05:35 PM 52.3°F11.3°C 41.3°F5.2°C 66% 4.5 mph E7.2 kmh E 9.8 mph15.8 kmh 30.37 in1028.4 mb 0.00 in0.0 mm 0.00 in0.0 mm 0.00 in0.0 mm
05:30 PM 52.3°F11.3°C 41.3°F5.2°C 66% 3.4 mph E5.5 kmh E 9.8 mph15.8 kmh 30.38 in1028.8 mb 0.00 in0.0 mm 0.00 in0.0 mm 0.00 in0.0 mm
05:25 PM 52.5°F11.4°C 41.5°F5.3°C 66% 3.1 mph ESE5.0 kmh ESE 9.2 mph14.8 kmh 30.37 in1028.4 mb 0.00 in0.0 mm 0.00 in0.0 mm 0.00 in0.0 mm
05:20 PM 52.7°F11.5°C 41.3°F5.2°C 65% 2.8 mph E4.5 kmh E 9.2 mph14.8 kmh 30.37 in1028.4 mb 0.00 in0.0 mm 0.00 in0.0 mm 0.00 in0.0 mm
05:15 PM 52.9°F11.6°C 41.4°F5.2°C 65% 2.4 mph E3.9 kmh E 6.0 mph9.7 kmh 30.37 in1028.4 mb 0.00 in0.0 mm 0.00 in0.0 mm 0.00 in0.0 mm
05:10 PM 53.2°F11.8°C 41.8°F5.4°C 65% 3.0 mph E4.8 kmh E 7.6 mph12.2 kmh 30.37 in1028.4 mb 0.00 in0.0 mm 0.00 in0.0 mm 0.00 in0.0 mm
05:05 PM 53.6°F12.0°C 41.7°F5.4°C 64% 3.8 mph E6.1 kmh E 9.2 mph14.8 kmh 30.37 in1028.4 mb 0.00 in0.0 mm 0.00 in0.0 mm 0.00 in0.0 mm
05:00 PM 53.8°F12.1°C 41.9°F5.5°C 64% 4.0 mph E6.4 kmh E 9.2 mph14.8 kmh 30.38 in1028.8 mb 0.00 in0.0 mm 0.00 in0.0 mm 0.00 in0.0 mm
04:55 PM 54.1°F12.3°C 42.6°F5.9°C 65% 3.9 mph E6.3 kmh E 9.8 mph15.8 kmh 30.38 in1028.8 mb 0.00 in0.0 mm 0.00 in0.0 mm 0.00 in0.0 mm
04:50 PM 53.6°F12.0°C 42.1°F5.6°C 65% 3.6 mph E5.8 kmh E 9.8 mph15.8 kmh 30.38 in1028.8 mb 0.00 in0.0 mm 0.00 in0.0 mm 0.00 in0.0 mm
04:40 PM 53.2°F11.8°C 41.4°F5.2°C 64% 3.4 mph SE5.5 kmh SE 7.6 mph12.2 kmh 30.38 in1028.8 mb 0.00 in0.0 mm 0.00 in0.0 mm 0.00 in0.0 mm
04:35 PM 53.4°F11.9°C 41.6°F5.3°C 64% 3.4 mph SE5.5 kmh SE 7.6 mph12.2 kmh 30.38 in1028.8 mb 0.00 in0.0 mm 0.00 in0.0 mm 0.00 in0.0 mm
04:30 PM 53.4°F11.9°C 41.6°F5.3°C 64% 3.7 mph ESE6.0 kmh ESE 9.2 mph14.8 kmh 30.38 in1028.8 mb 0.00 in0.0 mm 0.00 in0.0 mm 0.00 in0.0 mm
04:25 PM 53.4°F11.9°C 42.0°F5.6°C 65% 3.6 mph E5.8 kmh E 9.2 mph14.8 kmh 30.38 in1028.8 mb 0.00 in0.0 mm 0.00 in0.0 mm 0.00 in0.0 mm
04:20 PM 52.9°F11.6°C 41.8°F5.4°C 66% 3.9 mph ESE6.3 kmh ESE 9.2 mph14.8 kmh 30.39 in1029.1 mb 0.00 in0.0 mm 0.00 in0.0 mm 0.00 in0.0 mm
04:15 PM 52.3°F11.3°C 41.3°F5.2°C 66% 4.6 mph ESE7.4 kmh ESE 9.8 mph15.8 kmh 30.39 in1029.1 mb 0.00 in0.0 mm 0.00 in0.0 mm 0.00 in0.0 mm
04:10 PM 52.0°F11.1°C 41.8°F5.4°C 68% 4.5 mph E7.2 kmh E 9.8 mph15.8 kmh 30.39 in1029.1 mb 0.00 in0.0 mm 0.00 in0.0 mm 0.00 in0.0 mm
04:05 PM 52.0°F11.1°C 41.8°F5.4°C 68% 4.8 mph E7.7 kmh E 10.7 mph17.2 kmh 30.39 in1029.1 mb 0.00 in0.0 mm 0.00 in0.0 mm 0.00 in0.0 mm
04:00 PM 51.8°F11.0°C 42.0°F5.6°C 69% 5.4 mph E8.7 kmh E 11.4 mph18.3 kmh 30.39 in1029.1 mb 0.00 in0.0 mm 0.00 in0.0 mm 0.00 in0.0 mm
03:55 PM 51.8°F11.0°C 41.6°F5.3°C 68% 6.4 mph E10.3 kmh E 13.0 mph20.9 kmh 30.39 in1029.1 mb 0.00 in0.0 mm 0.00 in0.0 mm 0.00 in0.0 mm
03:50 PM 51.8°F11.0°C 41.6°F5.3°C 68% 7.5 mph E12.1 kmh E 13.0 mph20.9 kmh 30.39 in1029.1 mb 0.00 in0.0 mm 0.00 in0.0 mm 0.00 in0.0 mm
03:45 PM 51.8°F11.0°C 41.2°F5.1°C 67% 7.9 mph ESE12.7 kmh ESE 13.6 mph21.9 kmh 30.38 in1028.8 mb 0.00 in0.0 mm 0.00 in0.0 mm 0.00 in0.0 mm
03:40 PM 51.8°F11.0°C 41.2°F5.1°C 67% 8.0 mph E12.9 kmh E 13.6 mph21.9 kmh 30.38 in1028.8 mb 0.00 in0.0 mm 0.00 in0.0 mm 0.00 in0.0 mm
03:35 PM 52.0°F11.1°C 41.4°F5.2°C 67% 7.2 mph E11.6 kmh E 13.6 mph21.9 kmh 30.38 in1028.8 mb 0.00 in0.0 mm 0.00 in0.0 mm 0.00 in0.0 mm
03:30 PM 52.3°F11.3°C 41.7°F5.4°C 67% 5.9 mph E9.5 kmh E 12.1 mph19.5 kmh 30.38 in1028.8 mb 0.00 in0.0 mm 0.00 in0.0 mm 0.00 in0.0 mm
03:25 PM 52.3°F11.3°C 41.7°F5.4°C 67% 6.3 mph E10.1 kmh E 13.6 mph21.9 kmh 30.38 in1028.8 mb 0.00 in0.0 mm 0.00 in0.0 mm 0.00 in0.0 mm
03:20 PM 52.3°F11.3°C 41.3°F5.2°C 66% 7.6 mph E12.2 kmh E 13.6 mph21.9 kmh 30.38 in1028.8 mb 0.00 in0.0 mm 0.00 in0.0 mm 0.00 in0.0 mm
03:15 PM 52.5°F11.4°C 41.1°F5.1°C 65% 7.6 mph ESE12.2 kmh ESE 13.6 mph21.9 kmh 30.39 in1029.1 mb 0.00 in0.0 mm 0.00 in0.0 mm 0.00 in0.0 mm
03:10 PM 52.9°F11.6°C 41.4°F5.2°C 65% 6.8 mph ESE10.9 kmh ESE 13.0 mph20.9 kmh 30.38 in1028.8 mb 0.00 in0.0 mm 0.00 in0.0 mm 0.00 in0.0 mm
03:05 PM 53.2°F11.8°C 41.8°F5.4°C 65% 7.5 mph E12.1 kmh E 13.0 mph20.9 kmh 30.39 in1029.1 mb 0.00 in0.0 mm 0.00 in0.0 mm 0.00 in0.0 mm
03:00 PM 53.4°F11.9°C 41.6°F5.3°C 64% 8.1 mph E13.0 kmh E 14.5 mph23.3 kmh 30.39 in1029.1 mb 0.00 in0.0 mm 0.00 in0.0 mm 0.00 in0.0 mm
02:55 PM 53.6°F12.0°C 41.7°F5.4°C 64% 7.7 mph E12.4 kmh E 14.5 mph23.3 kmh 30.39 in1029.1 mb 0.00 in0.0 mm 0.00 in0.0 mm 0.00 in0.0 mm
02:50 PM 53.8°F12.1°C 42.3°F5.7°C 65% 7.6 mph E12.2 kmh E 14.5 mph23.3 kmh 30.39 in1029.1 mb 0.00 in0.0 mm 0.00 in0.0 mm 0.00 in0.0 mm
02:45 PM 53.8°F12.1°C 42.3°F5.7°C 65% 8.2 mph E13.2 kmh E 13.0 mph20.9 kmh 30.39 in1029.1 mb 0.00 in0.0 mm 0.00 in0.0 mm 0.00 in0.0 mm
02:40 PM 53.4°F11.9°C 42.4°F5.8°C 66% 9.0 mph E14.5 kmh E 16.8 mph27.0 kmh 30.39 in1029.1 mb 0.00 in0.0 mm 0.00 in0.0 mm 0.00 in0.0 mm
02:35 PM 52.9°F11.6°C 41.4°F5.2°C 65% 9.1 mph E14.6 kmh E 16.8 mph27.0 kmh 30.39 in1029.1 mb 0.00 in0.0 mm 0.00 in0.0 mm 0.00 in0.0 mm
02:30 PM 52.7°F11.5°C 41.3°F5.2°C 65% 9.0 mph E14.5 kmh E 15.2 mph24.5 kmh 30.39 in1029.1 mb 0.00 in0.0 mm 0.00 in0.0 mm 0.00 in0.0 mm
02:25 PM 52.5°F11.4°C 41.1°F5.1°C 65% 8.7 mph E14.0 kmh E 15.2 mph24.5 kmh 30.39 in1029.1 mb 0.00 in0.0 mm 0.00 in0.0 mm 0.00 in0.0 mm
02:20 PM 52.5°F11.4°C 41.1°F5.1°C 65% 9.0 mph E14.5 kmh E 14.5 mph23.3 kmh 30.39 in1029.1 mb 0.00 in0.0 mm 0.00 in0.0 mm 0.00 in0.0 mm
02:15 PM 52.7°F11.5°C 40.9°F4.9°C 64% 9.2 mph E14.8 kmh E 14.5 mph23.3 kmh 30.40 in1029.5 mb 0.00 in0.0 mm 0.00 in0.0 mm 0.00 in0.0 mm
02:10 PM 52.9°F11.6°C 41.4°F5.2°C 65% 9.0 mph E14.5 kmh E 14.5 mph23.3 kmh 30.40 in1029.5 mb 0.00 in0.0 mm 0.00 in0.0 mm 0.00 in0.0 mm
02:05 PM 52.7°F11.5°C 40.9°F4.9°C 64% 8.8 mph E14.2 kmh E 14.5 mph23.3 kmh 30.40 in1029.5 mb 0.00 in0.0 mm 0.00 in0.0 mm 0.00 in0.0 mm
02:00 PM 52.5°F11.4°C 40.7°F4.8°C 64% 8.6 mph ESE13.8 kmh ESE 14.5 mph23.3 kmh 30.40 in1029.5 mb 0.00 in0.0 mm 0.00 in0.0 mm 0.00 in0.0 mm
01:55 PM 52.7°F11.5°C 40.9°F4.9°C 64% 8.2 mph E13.2 kmh E 14.5 mph23.3 kmh 30.40 in1029.5 mb 0.00 in0.0 mm 0.00 in0.0 mm 0.00 in0.0 mm
01:50 PM 52.7°F11.5°C 40.9°F4.9°C 64% 8.2 mph E13.2 kmh E 14.5 mph23.3 kmh 30.40 in1029.5 mb 0.00 in0.0 mm 0.00 in0.0 mm 0.00 in0.0 mm
01:45 PM 52.5°F11.4°C 40.3°F4.6°C 63% 8.2 mph E13.2 kmh E 14.5 mph23.3 kmh 30.41 in1029.8 mb 0.00 in0.0 mm 0.00 in0.0 mm 0.00 in0.0 mm
01:40 PM 52.3°F11.3°C 40.1°F4.5°C 63% 8.4 mph E13.5 kmh E 15.9 mph25.6 kmh 30.40 in1029.5 mb 0.00 in0.0 mm 0.00 in0.0 mm 0.00 in0.0 mm
01:35 PM 52.3°F11.3°C 39.7°F4.3°C 62% 8.8 mph E14.2 kmh E 16.8 mph27.0 kmh 30.41 in1029.8 mb 0.00 in0.0 mm 0.00 in0.0 mm 0.00 in0.0 mm
01:30 PM 52.9°F11.6°C 39.8°F4.3°C 61% 8.0 mph E12.9 kmh E 16.8 mph27.0 kmh 30.41 in1029.8 mb 0.00 in0.0 mm 0.00 in0.0 mm 0.00 in0.0 mm
01:25 PM 53.2°F11.8°C 40.1°F4.5°C 61% 6.7 mph E10.8 kmh E 15.2 mph24.5 kmh 30.41 in1029.8 mb 0.00 in0.0 mm 0.00 in0.0 mm 0.00 in0.0 mm
01:20 PM 53.8°F12.1°C 40.2°F4.6°C 60% 5.8 mph E9.3 kmh E 15.2 mph24.5 kmh 30.41 in1029.8 mb 0.00 in0.0 mm 0.00 in0.0 mm 0.00 in0.0 mm
01:15 PM 54.3°F12.4°C 40.7°F4.8°C 60% 5.6 mph SE9.0 kmh SE 10.7 mph17.2 kmh 30.41 in1029.8 mb 0.00 in0.0 mm 0.00 in0.0 mm 0.00 in0.0 mm
01:10 PM 54.7°F12.6°C 38.4°F3.6°C 54% 5.4 mph SE8.7 kmh SE 9.8 mph15.8 kmh 30.41 in1029.8 mb 0.00 in0.0 mm 0.00 in0.0 mm 0.00 in0.0 mm
01:05 PM 55.2°F12.9°C 38.9°F3.8°C 54% 5.1 mph ESE8.2 kmh ESE 9.8 mph15.8 kmh 30.41 in1029.8 mb 0.00 in0.0 mm 0.00 in0.0 mm 0.00 in0.0 mm
01:00 PM 55.6°F13.1°C 38.7°F3.7°C 53% 5.6 mph ESE9.0 kmh ESE 10.7 mph17.2 kmh 30.41 in1029.8 mb 0.00 in0.0 mm 0.00 in0.0 mm 0.00 in0.0 mm
12:55 PM 56.1°F13.4°C 39.2°F4.0°C 53% 5.5 mph SE8.9 kmh SE 11.4 mph18.3 kmh 30.41 in1029.8 mb 0.00 in0.0 mm 0.00 in0.0 mm 0.00 in0.0 mm
12:50 PM 56.8°F13.8°C 39.4°F4.1°C 52% 4.9 mph E7.9 kmh E 11.4 mph18.3 kmh 30.41 in1029.8 mb 0.00 in0.0 mm 0.00 in0.0 mm 0.00 in0.0 mm
12:45 PM 57.6°F14.2°C 40.1°F4.5°C 52% 4.4 mph ESE7.1 kmh ESE 9.2 mph14.8 kmh 30.41 in1029.8 mb 0.00 in0.0 mm 0.00 in0.0 mm 0.00 in0.0 mm
12:40 PM 58.8°F14.9°C 40.7°F4.8°C 51% 3.6 mph SE5.8 kmh SE 9.2 mph14.8 kmh 30.41 in1029.8 mb 0.00 in0.0 mm 0.00 in0.0 mm 0.00 in0.0 mm
12:35 PM 59.5°F15.3°C 41.9°F5.5°C 52% 3.8 mph E6.1 kmh E 9.2 mph14.8 kmh 30.41 in1029.8 mb 0.00 in0.0 mm 0.00 in0.0 mm 0.00 in0.0 mm
12:30 PM 59.7°F15.4°C 41.6°F5.3°C 51% 3.7 mph E6.0 kmh E 9.2 mph14.8 kmh 30.41 in1029.8 mb 0.00 in0.0 mm 0.00 in0.0 mm 0.00 in0.0 mm
12:25 PM 59.7°F15.4°C 42.6°F5.9°C 53% 3.8 mph E6.1 kmh E 9.2 mph14.8 kmh 30.42 in1030.1 mb 0.00 in0.0 mm 0.00 in0.0 mm 0.00 in0.0 mm
12:20 PM 59.4°F15.2°C 41.7°F5.4°C 52% 4.4 mph E7.1 kmh E 9.2 mph14.8 kmh 30.42 in1030.1 mb 0.00 in0.0 mm 0.00 in0.0 mm 0.00 in0.0 mm
12:15 PM 59.2°F15.1°C 41.6°F5.3°C 52% 4.4 mph E7.1 kmh E 9.2 mph14.8 kmh 30.42 in1030.1 mb 0.00 in0.0 mm 0.00 in0.0 mm 0.00 in0.0 mm
12:10 PM 59.2°F15.1°C 41.6°F5.3°C 52% 4.8 mph ESE7.7 kmh ESE 9.2 mph14.8 kmh 30.43 in1030.5 mb 0.00 in0.0 mm 0.00 in0.0 mm 0.00 in0.0 mm
12:05 PM 59.0°F15.0°C 41.4°F5.2°C 52% 5.1 mph ESE8.2 kmh ESE 9.2 mph14.8 kmh 30.43 in1030.5 mb 0.00 in0.0 mm 0.00 in0.0 mm 0.00 in0.0 mm
12:00 PM 59.0°F15.0°C 41.4°F5.2°C 52% 5.2 mph SE8.4 kmh SE 9.8 mph15.8 kmh 30.43 in1030.5 mb 0.00 in0.0 mm 0.00 in0.0 mm 0.00 in0.0 mm
11:55 AM 59.2°F15.1°C 42.1°F5.6°C 53% 4.7 mph SE7.6 kmh SE 9.8 mph15.8 kmh 30.43 in1030.5 mb 0.00 in0.0 mm 0.00 in0.0 mm 0.00 in0.0 mm
11:50 AM 59.0°F15.0°C 41.9°F5.5°C 53% 4.4 mph E7.1 kmh E 8.3 mph13.4 kmh 30.43 in1030.5 mb 0.00 in0.0 mm 0.00 in0.0 mm 0.00 in0.0 mm
11:45 AM 58.6°F14.8°C 41.1°F5.1°C 52% 5.0 mph ESE8.0 kmh ESE 10.7 mph17.2 kmh 30.43 in1030.5 mb 0.00 in0.0 mm 0.00 in0.0 mm 0.00 in0.0 mm
11:40 AM 58.6°F14.8°C 41.6°F5.3°C 53% 5.4 mph SE8.7 kmh SE 10.7 mph17.2 kmh 30.43 in1030.5 mb 0.00 in0.0 mm 0.00 in0.0 mm 0.00 in0.0 mm
11:35 AM 59.0°F15.0°C 41.4°F5.2°C 52% 5.0 mph ESE8.0 kmh ESE 9.8 mph15.8 kmh 30.43 in1030.5 mb 0.00 in0.0 mm 0.00 in0.0 mm 0.00 in0.0 mm
11:30 AM 59.2°F15.1°C 42.1°F5.6°C 53% 4.6 mph E7.4 kmh E 9.2 mph14.8 kmh 30.43 in1030.5 mb 0.00 in0.0 mm 0.00 in0.0 mm 0.00 in0.0 mm
11:25 AM 59.2°F15.1°C 42.1°F5.6°C 53% 4.2 mph ESE6.8 kmh ESE 10.7 mph17.2 kmh 30.43 in1030.5 mb 0.00 in0.0 mm 0.00 in0.0 mm 0.00 in0.0 mm
11:20 AM 59.0°F15.0°C 41.9°F5.5°C 53% 4.1 mph SE6.6 kmh SE 10.7 mph17.2 kmh 30.43 in1030.5 mb 0.00 in0.0 mm 0.00 in0.0 mm 0.00 in0.0 mm
11:15 AM 58.6°F14.8°C 41.6°F5.3°C 53% 4.3 mph S6.9 kmh S 9.8 mph15.8 kmh 30.43 in1030.5 mb 0.00 in0.0 mm 0.00 in0.0 mm 0.00 in0.0 mm
11:10 AM 58.5°F14.7°C 40.9°F4.9°C 52% 4.8 mph S7.7 kmh S 11.4 mph18.3 kmh 30.43 in1030.5 mb 0.00 in0.0 mm 0.00 in0.0 mm 0.00 in0.0 mm
11:05 AM 58.3°F14.6°C 40.7°F4.8°C 52% 5.5 mph S8.9 kmh S 11.4 mph18.3 kmh 30.43 in1030.5 mb 0.00 in0.0 mm 0.00 in0.0 mm 0.00 in0.0 mm
11:00 AM 58.5°F14.7°C 40.4°F4.7°C 51% 5.4 mph S8.7 kmh S 9.2 mph14.8 kmh 30.43 in1030.5 mb 0.00 in0.0 mm 0.00 in0.0 mm 0.00 in0.0 mm
10:55 AM 58.6°F14.8°C 40.6°F4.8°C 51% 4.9 mph S7.9 kmh S 11.4 mph18.3 kmh 30.43 in1030.5 mb 0.00 in0.0 mm 0.00 in0.0 mm 0.00 in0.0 mm
10:50 AM 58.6°F14.8°C 40.6°F4.8°C 51% 4.7 mph N7.6 kmh N 11.4 mph18.3 kmh 30.43 in1030.5 mb 0.00 in0.0 mm 0.00 in0.0 mm 0.00 in0.0 mm
10:45 AM 58.8°F14.9°C 41.2°F5.1°C 52% 4.6 mph N7.4 kmh N 8.3 mph13.4 kmh 30.43 in1030.5 mb 0.00 in0.0 mm 0.00 in0.0 mm 0.00 in0.0 mm
10:40 AM 58.8°F14.9°C 40.7°F4.8°C 51% 4.7 mph SSW7.6 kmh SSW 8.3 mph13.4 kmh 30.43 in1030.5 mb 0.00 in0.0 mm 0.00 in0.0 mm 0.00 in0.0 mm
10:35 AM 59.0°F15.0°C 40.9°F4.9°C 51% 4.7 mph SW7.6 kmh SW 9.8 mph15.8 kmh 30.43 in1030.5 mb 0.00 in0.0 mm 0.00 in0.0 mm 0.00 in0.0 mm
10:30 AM 59.0°F15.0°C 40.9°F4.9°C 51% 4.1 mph SSE6.6 kmh SSE 9.8 mph15.8 kmh 30.43 in1030.5 mb 0.00 in0.0 mm 0.00 in0.0 mm 0.00 in0.0 mm
10:25 AM 59.0°F15.0°C 41.4°F5.2°C 52% 3.9 mph E6.3 kmh E 8.3 mph13.4 kmh 30.43 in1030.5 mb 0.00 in0.0 mm 0.00 in0.0 mm 0.00 in0.0 mm
10:20 AM 58.6°F14.8°C 41.1°F5.1°C 52% 4.6 mph ENE7.4 kmh ENE 9.8 mph15.8 kmh 30.44 in1030.8 mb 0.00 in0.0 mm 0.00 in0.0 mm 0.00 in0.0 mm
10:15 AM 58.5°F14.7°C 40.9°F4.9°C 52% 4.7 mph E7.6 kmh E 9.8 mph15.8 kmh 30.43 in1030.5 mb 0.00 in0.0 mm 0.00 in0.0 mm 0.00 in0.0 mm
10:10 AM 58.5°F14.7°C 40.9°F4.9°C 52% 4.7 mph SE7.6 kmh SE 10.7 mph17.2 kmh 30.43 in1030.5 mb 0.00 in0.0 mm 0.00 in0.0 mm 0.00 in0.0 mm
10:05 AM 58.5°F14.7°C 40.9°F4.9°C 52% 4.8 mph SSE7.7 kmh SSE 10.7 mph17.2 kmh 30.43 in1030.5 mb 0.00 in0.0 mm 0.00 in0.0 mm 0.00 in0.0 mm
10:00 AM 58.6°F14.8°C 41.1°F5.1°C 52% 4.2 mph E6.8 kmh E 10.7 mph17.2 kmh 30.44 in1030.8 mb 0.00 in0.0 mm 0.00 in0.0 mm 0.00 in0.0 mm
09:55 AM 58.8°F14.9°C 41.2°F5.1°C 52% 3.9 mph NE6.3 kmh NE 8.3 mph13.4 kmh 30.44 in1030.8 mb 0.00 in0.0 mm 0.00 in0.0 mm 0.00 in0.0 mm
09:50 AM 58.6°F14.8°C 41.6°F5.3°C 53% 4.1 mph E6.6 kmh E 10.7 mph17.2 kmh 30.43 in1030.5 mb 0.00 in0.0 mm 0.00 in0.0 mm 0.00 in0.0 mm
09:45 AM 58.5°F14.7°C 40.9°F4.9°C 52% 4.4 mph E7.1 kmh E 15.9 mph25.6 kmh 30.44 in1030.8 mb 0.00 in0.0 mm 0.00 in0.0 mm 0.00 in0.0 mm
09:40 AM 58.3°F14.6°C 40.7°F4.8°C 52% 4.5 mph ESE7.2 kmh ESE 15.9 mph25.6 kmh 30.43 in1030.5 mb 0.00 in0.0 mm 0.00 in0.0 mm 0.00 in0.0 mm
09:35 AM 58.3°F14.6°C 40.7°F4.8°C 52% 4.2 mph SE6.8 kmh SE 8.3 mph13.4 kmh 30.44 in1030.8 mb 0.00 in0.0 mm 0.00 in0.0 mm 0.00 in0.0 mm
09:30 AM 58.3°F14.6°C 41.2°F5.1°C 53% 4.0 mph NE6.4 kmh NE 8.3 mph13.4 kmh 30.44 in1030.8 mb 0.00 in0.0 mm 0.00 in0.0 mm 0.00 in0.0 mm
09:25 AM 58.1°F14.5°C 41.1°F5.1°C 53% 4.2 mph ENE6.8 kmh ENE 8.3 mph13.4 kmh 30.44 in1030.8 mb 0.00 in0.0 mm 0.00 in0.0 mm 0.00 in0.0 mm
09:20 AM 57.9°F14.4°C 40.9°F4.9°C 53% 4.0 mph SE6.4 kmh SE 9.2 mph14.8 kmh 30.44 in1030.8 mb 0.00 in0.0 mm 0.00 in0.0 mm 0.00 in0.0 mm
09:15 AM 57.9°F14.4°C 41.4°F5.2°C 54% 3.7 mph ESE6.0 kmh ESE 9.2 mph14.8 kmh 30.44 in1030.8 mb 0.00 in0.0 mm 0.00 in0.0 mm 0.00 in0.0 mm
09:10 AM 57.6°F14.2°C 41.1°F5.1°C 54% 3.7 mph E6.0 kmh E 8.3 mph13.4 kmh 30.45 in1031.2 mb 0.00 in0.0 mm 0.00 in0.0 mm 0.00 in0.0 mm
09:05 AM 57.4°F14.1°C 40.9°F4.9°C 54% 4.4 mph ESE7.1 kmh ESE 12.1 mph19.5 kmh 30.44 in1030.8 mb 0.00 in0.0 mm 0.00 in0.0 mm 0.00 in0.0 mm
09:00 AM 57.4°F14.1°C 41.4°F5.2°C 55% 4.7 mph SE7.6 kmh SE 12.1 mph19.5 kmh 30.44 in1030.8 mb 0.00 in0.0 mm 0.00 in0.0 mm 0.00 in0.0 mm
08:55 AM 57.4°F14.1°C 41.4°F5.2°C 55% 4.2 mph E6.8 kmh E 12.1 mph19.5 kmh 30.44 in1030.8 mb 0.00 in0.0 mm 0.00 in0.0 mm 0.00 in0.0 mm
08:50 AM 57.0°F13.9°C 41.5°F5.3°C 56% 3.9 mph E6.3 kmh E 9.2 mph14.8 kmh 30.44 in1030.8 mb 0.00 in0.0 mm 0.00 in0.0 mm 0.00 in0.0 mm
08:45 AM 56.8°F13.8°C 41.3°F5.2°C 56% 4.0 mph ESE6.4 kmh ESE 9.2 mph14.8 kmh 30.45 in1031.2 mb 0.00 in0.0 mm 0.00 in0.0 mm 0.00 in0.0 mm
08:40 AM 56.7°F13.7°C 41.2°F5.1°C 56% 4.0 mph ESE6.4 kmh ESE 7.6 mph12.2 kmh 30.44 in1030.8 mb 0.00 in0.0 mm 0.00 in0.0 mm 0.00 in0.0 mm
08:35 AM 56.5°F13.6°C 41.0°F5.0°C 56% 4.5 mph SE7.2 kmh SE 13.0 mph20.9 kmh 30.44 in1030.8 mb 0.00 in0.0 mm 0.00 in0.0 mm 0.00 in0.0 mm
08:30 AM 56.3°F13.5°C 40.8°F4.9°C 56% 5.0 mph E8.0 kmh E 13.0 mph20.9 kmh 30.44 in1030.8 mb 0.00 in0.0 mm 0.00 in0.0 mm 0.00 in0.0 mm
08:25 AM 56.1°F13.4°C 40.6°F4.8°C 56% 4.9 mph NE7.9 kmh NE 13.0 mph20.9 kmh 30.44 in1030.8 mb 0.00 in0.0 mm 0.00 in0.0 mm 0.00 in0.0 mm
08:20 AM 55.9°F13.3°C 40.5°F4.7°C 56% 5.1 mph NE8.2 kmh NE 9.8 mph15.8 kmh 30.44 in1030.8 mb 0.00 in0.0 mm 0.00 in0.0 mm 0.00 in0.0 mm
08:15 AM 55.8°F13.2°C 40.3°F4.6°C 56% 5.1 mph SSE8.2 kmh SSE 9.8 mph15.8 kmh 30.44 in1030.8 mb 0.00 in0.0 mm 0.00 in0.0 mm 0.00 in0.0 mm
08:10 AM 55.8°F13.2°C 40.8°F4.9°C 57% 4.8 mph SE7.7 kmh SE 8.3 mph13.4 kmh 30.44 in1030.8 mb 0.00 in0.0 mm 0.00 in0.0 mm 0.00 in0.0 mm
08:05 AM 55.6°F13.1°C 40.1°F4.5°C 56% 4.4 mph NE7.1 kmh NE 8.3 mph13.4 kmh 30.44 in1030.8 mb 0.00 in0.0 mm 0.00 in0.0 mm 0.00 in0.0 mm
08:00 AM 55.4°F13.0°C 40.0°F4.4°C 56% 4.4 mph SSE7.1 kmh SSE 9.8 mph15.8 kmh 30.44 in1030.8 mb 0.00 in0.0 mm 0.00 in0.0 mm 0.00 in0.0 mm
07:55 AM 55.4°F13.0°C 40.4°F4.7°C 57% 4.7 mph S7.6 kmh S 13.0 mph20.9 kmh 30.43 in1030.5 mb 0.00 in0.0 mm 0.00 in0.0 mm 0.00 in0.0 mm
07:50 AM 55.2°F12.9°C 40.7°F4.8°C 58% 4.5 mph SE7.2 kmh SE 13.0 mph20.9 kmh 30.43 in1030.5 mb 0.00 in0.0 mm 0.00 in0.0 mm 0.00 in0.0 mm
07:45 AM 55.0°F12.8°C 40.5°F4.7°C 58% 4.4 mph NNW7.1 kmh NNW 13.0 mph20.9 kmh 30.43 in1030.5 mb 0.00 in0.0 mm 0.00 in0.0 mm 0.00 in0.0 mm
07:40 AM 55.0°F12.8°C 41.0°F5.0°C 59% 4.1 mph NW6.6 kmh NW 10.7 mph17.2 kmh 30.44 in1030.8 mb 0.00 in0.0 mm 0.00 in0.0 mm 0.00 in0.0 mm
07:35 AM 54.9°F12.7°C 41.2°F5.1°C 60% 4.2 mph E6.8 kmh E 9.2 mph14.8 kmh 30.44 in1030.8 mb 0.00 in0.0 mm 0.00 in0.0 mm 0.00 in0.0 mm
07:30 AM 54.5°F12.5°C 40.9°F4.9°C 60% 4.4 mph E7.1 kmh E 9.2 mph14.8 kmh 30.43 in1030.5 mb 0.00 in0.0 mm 0.00 in0.0 mm 0.00 in0.0 mm
07:25 AM 54.3°F12.4°C 41.6°F5.3°C 62% 4.1 mph NW6.6 kmh NW 9.2 mph14.8 kmh 30.43 in1030.5 mb 0.00 in0.0 mm 0.00 in0.0 mm 0.00 in0.0 mm
07:20 AM 54.1°F12.3°C 41.4°F5.2°C 62% 4.3 mph NW6.9 kmh NW 9.2 mph14.8 kmh 30.43 in1030.5 mb 0.00 in0.0 mm 0.00 in0.0 mm 0.00 in0.0 mm
07:15 AM 54.0°F12.2°C 41.7°F5.4°C 63% 4.6 mph ESE7.4 kmh ESE 11.4 mph18.3 kmh 30.43 in1030.5 mb 0.00 in0.0 mm 0.00 in0.0 mm 0.00 in0.0 mm
07:10 AM 53.8°F12.1°C 41.5°F5.3°C 63% 4.7 mph E7.6 kmh E 12.1 mph19.5 kmh 30.43 in1030.5 mb 0.00 in0.0 mm 0.00 in0.0 mm 0.00 in0.0 mm
07:05 AM 53.6°F12.0°C 41.3°F5.2°C 63% 4.7 mph E7.6 kmh E 12.1 mph19.5 kmh 30.43 in1030.5 mb 0.00 in0.0 mm 0.00 in0.0 mm 0.00 in0.0 mm
07:00 AM 53.4°F11.9°C 41.6°F5.3°C 64% 4.4 mph E7.1 kmh E 10.7 mph17.2 kmh 30.43 in1030.5 mb 0.00 in0.0 mm 0.00 in0.0 mm 0.00 in0.0 mm
06:55 AM 53.2°F11.8°C 41.4°F5.2°C 64% 4.1 mph SE6.6 kmh SE 8.3 mph13.4 kmh 30.43 in1030.5 mb 0.00 in0.0 mm 0.00 in0.0 mm 0.00 in0.0 mm
06:50 AM 53.1°F11.7°C 41.6°F5.3°C 65% 4.0 mph S6.4 kmh S 9.2 mph14.8 kmh 30.43 in1030.5 mb 0.00 in0.0 mm 0.00 in0.0 mm 0.00 in0.0 mm
06:45 AM 52.9°F11.6°C 41.4°F5.2°C 65% 4.1 mph E6.6 kmh E 9.2 mph14.8 kmh 30.43 in1030.5 mb 0.00 in0.0 mm 0.00 in0.0 mm 0.00 in0.0 mm
06:40 AM 52.7°F11.5°C 41.3°F5.2°C 65% 4.4 mph ESE7.1 kmh ESE 9.8 mph15.8 kmh 30.43 in1030.5 mb 0.00 in0.0 mm 0.00 in0.0 mm 0.00 in0.0 mm
06:35 AM 52.5°F11.4°C 41.1°F5.1°C 65% 4.4 mph SW7.1 kmh SW 9.8 mph15.8 kmh 30.43 in1030.5 mb 0.00 in0.0 mm 0.00 in0.0 mm 0.00 in0.0 mm
06:30 AM 52.3°F11.3°C 40.9°F4.9°C 65% 4.4 mph SSW7.1 kmh SSW 9.8 mph15.8 kmh 30.43 in1030.5 mb 0.00 in0.0 mm 0.00 in0.0 mm 0.00 in0.0 mm
06:25 AM 52.2°F11.2°C 40.8°F4.9°C 65% 4.3 mph S6.9 kmh S 13.6 mph21.9 kmh 30.43 in1030.5 mb 0.00 in0.0 mm 0.00 in0.0 mm 0.00 in0.0 mm
06:20 AM 52.0°F11.1°C 41.0°F5.0°C 66% 3.9 mph SSE6.3 kmh SSE 13.6 mph21.9 kmh 30.43 in1030.5 mb 0.00 in0.0 mm 0.00 in0.0 mm 0.00 in0.0 mm
06:15 AM 51.8°F11.0°C 40.8°F4.9°C 66% 3.7 mph SE6.0 kmh SE 7.6 mph12.2 kmh 30.43 in1030.5 mb 0.00 in0.0 mm 0.00 in0.0 mm 0.00 in0.0 mm
06:10 AM 51.6°F10.9°C 40.6°F4.8°C 66% 3.7 mph NE6.0 kmh NE 9.8 mph15.8 kmh 30.44 in1030.8 mb 0.00 in0.0 mm 0.00 in0.0 mm 0.00 in0.0 mm
06:05 AM 51.4°F10.8°C 40.5°F4.7°C 66% 3.9 mph WNW6.3 kmh WNW 9.8 mph15.8 kmh 30.43 in1030.5 mb 0.00 in0.0 mm 0.00 in0.0 mm 0.00 in0.0 mm
06:00 AM 51.4°F10.8°C 40.5°F4.7°C 66% 3.9 mph S6.3 kmh S 7.6 mph12.2 kmh 30.44 in1030.8 mb 0.00 in0.0 mm 0.00 in0.0 mm 0.00 in0.0 mm
05:55 AM 51.3°F10.7°C 40.7°F4.8°C 67% 4.0 mph E6.4 kmh E 8.3 mph13.4 kmh 30.44 in1030.8 mb 0.00 in0.0 mm 0.00 in0.0 mm 0.00 in0.0 mm
05:50 AM 51.1°F10.6°C 40.1°F4.5°C 66% 4.0 mph E6.4 kmh E 9.2 mph14.8 kmh 30.44 in1030.8 mb 0.00 in0.0 mm 0.00 in0.0 mm 0.00 in0.0 mm
05:45 AM 51.1°F10.6°C 40.5°F4.7°C 67% 4.5 mph ESE7.2 kmh ESE 9.2 mph14.8 kmh 30.44 in1030.8 mb 0.00 in0.0 mm 0.00 in0.0 mm 0.00 in0.0 mm
05:40 AM 50.9°F10.5°C 40.3°F4.6°C 67% 4.9 mph S7.9 kmh S 9.8 mph15.8 kmh 30.44 in1030.8 mb 0.00 in0.0 mm 0.00 in0.0 mm 0.00 in0.0 mm
05:35 AM 50.7°F10.4°C 40.6°F4.8°C 68% 4.2 mph WSW6.8 kmh WSW 9.8 mph15.8 kmh 30.44 in1030.8 mb 0.00 in0.0 mm 0.00 in0.0 mm 0.00 in0.0 mm
05:30 AM 50.4°F10.2°C 40.6°F4.8°C 69% 3.5 mph S5.6 kmh S 9.2 mph14.8 kmh 30.43 in1030.5 mb 0.00 in0.0 mm 0.00 in0.0 mm 0.00 in0.0 mm
05:25 AM 50.2°F10.1°C 40.8°F4.9°C 70% 3.6 mph SE5.8 kmh SE 7.6 mph12.2 kmh 30.43 in1030.5 mb 0.00 in0.0 mm 0.00 in0.0 mm 0.00 in0.0 mm
05:20 AM 50.0°F10.0°C 40.6°F4.8°C 70% 3.5 mph ESE5.6 kmh ESE 7.6 mph12.2 kmh 30.44 in1030.8 mb 0.00 in0.0 mm 0.00 in0.0 mm 0.00 in0.0 mm
05:15 AM 50.0°F10.0°C 40.6°F4.8°C 70% 3.6 mph ENE5.8 kmh ENE 7.6 mph12.2 kmh 30.43 in1030.5 mb 0.00 in0.0 mm 0.00 in0.0 mm 0.00 in0.0 mm
05:10 AM 49.8°F9.9°C 40.4°F4.7°C 70% 3.8 mph ENE6.1 kmh ENE 6.9 mph11.1 kmh 30.44 in1030.8 mb 0.00 in0.0 mm 0.00 in0.0 mm 0.00 in0.0 mm
05:05 AM 49.8°F9.9°C 40.4°F4.7°C 70% 3.7 mph E6.0 kmh E 9.2 mph14.8 kmh 30.43 in1030.5 mb 0.00 in0.0 mm 0.00 in0.0 mm 0.00 in0.0 mm
05:00 AM 49.6°F9.8°C 40.3°F4.6°C 70% 3.5 mph ENE5.6 kmh ENE 9.8 mph15.8 kmh 30.44 in1030.8 mb 0.00 in0.0 mm 0.00 in0.0 mm 0.00 in0.0 mm
04:55 AM 49.6°F9.8°C 40.3°F4.6°C 70% 3.8 mph ESE6.1 kmh ESE 9.8 mph15.8 kmh 30.43 in1030.5 mb 0.00 in0.0 mm 0.00 in0.0 mm 0.00 in0.0 mm
04:50 AM 49.5°F9.7°C 40.1°F4.5°C 70% 4.1 mph SE6.6 kmh SE 9.8 mph15.8 kmh 30.43 in1030.5 mb 0.00 in0.0 mm 0.00 in0.0 mm 0.00 in0.0 mm
04:45 AM 49.5°F9.7°C 40.1°F4.5°C 70% 4.0 mph ESE6.4 kmh ESE 9.2 mph14.8 kmh 30.43 in1030.5 mb 0.00 in0.0 mm 0.00 in0.0 mm 0.00 in0.0 mm
04:40 AM 49.3°F9.6°C 39.9°F4.4°C 70% 3.6 mph ESE5.8 kmh ESE 9.2 mph14.8 kmh 30.43 in1030.5 mb 0.00 in0.0 mm 0.00 in0.0 mm 0.00 in0.0 mm
04:35 AM 49.3°F9.6°C 39.9°F4.4°C 70% 3.3 mph SE5.3 kmh SE 7.6 mph12.2 kmh 30.43 in1030.5 mb 0.00 in0.0 mm 0.00 in0.0 mm 0.00 in0.0 mm
04:30 AM 49.3°F9.6°C 39.9°F4.4°C 70% 3.4 mph SE5.5 kmh SE 7.6 mph12.2 kmh 30.43 in1030.5 mb 0.00 in0.0 mm 0.00 in0.0 mm 0.00 in0.0 mm
04:25 AM 49.1°F9.5°C 39.7°F4.3°C 70% 3.5 mph NE5.6 kmh NE 7.6 mph12.2 kmh 30.43 in1030.5 mb 0.00 in0.0 mm 0.00 in0.0 mm 0.00 in0.0 mm
04:20 AM 49.1°F9.5°C 39.7°F4.3°C 70% 3.5 mph ENE5.6 kmh ENE 9.8 mph15.8 kmh 30.44 in1030.8 mb 0.00 in0.0 mm 0.00 in0.0 mm 0.00 in0.0 mm
04:15 AM 49.1°F9.5°C 39.7°F4.3°C 70% 3.5 mph SE5.6 kmh SE 9.8 mph15.8 kmh 30.44 in1030.8 mb 0.00 in0.0 mm 0.00 in0.0 mm 0.00 in0.0 mm
04:10 AM 49.1°F9.5°C 39.7°F4.3°C 70% 3.7 mph SE6.0 kmh SE 6.9 mph11.1 kmh 30.44 in1030.8 mb 0.00 in0.0 mm 0.00 in0.0 mm 0.00 in0.0 mm
04:05 AM 49.1°F9.5°C 39.7°F4.3°C 70% 3.6 mph SE5.8 kmh SE 6.9 mph11.1 kmh 30.44 in1030.8 mb 0.00 in0.0 mm 0.00 in0.0 mm 0.00 in0.0 mm
04:00 AM 49.1°F9.5°C 39.7°F4.3°C 70% 3.5 mph SE5.6 kmh SE 6.9 mph11.1 kmh 30.44 in1030.8 mb 0.00 in0.0 mm 0.00 in0.0 mm 0.00 in0.0 mm
03:55 AM 49.1°F9.5°C 39.7°F4.3°C 70% 3.5 mph SE5.6 kmh SE 7.6 mph12.2 kmh 30.44 in1030.8 mb 0.00 in0.0 mm 0.00 in0.0 mm 0.00 in0.0 mm
03:50 AM 49.1°F9.5°C 39.4°F4.1°C 69% 3.7 mph WNW6.0 kmh WNW 7.6 mph12.2 kmh 30.44 in1030.8 mb 0.00 in0.0 mm 0.00 in0.0 mm 0.00 in0.0 mm
03:45 AM 49.1°F9.5°C 39.4°F4.1°C 69% 4.1 mph S6.6 kmh S 8.3 mph13.4 kmh 30.45 in1031.2 mb 0.00 in0.0 mm 0.00 in0.0 mm 0.00 in0.0 mm
03:40 AM 49.1°F9.5°C 39.4°F4.1°C 69% 4.0 mph S6.4 kmh S 8.3 mph13.4 kmh 30.44 in1030.8 mb 0.00 in0.0 mm 0.00 in0.0 mm 0.00 in0.0 mm
03:35 AM 49.1°F9.5°C 39.4°F4.1°C 69% 3.9 mph SE6.3 kmh SE 8.3 mph13.4 kmh 30.44 in1030.8 mb 0.00 in0.0 mm 0.00 in0.0 mm 0.00 in0.0 mm
03:30 AM 49.1°F9.5°C 39.4°F4.1°C 69% 4.0 mph ENE6.4 kmh ENE 11.4 mph18.3 kmh 30.45 in1031.2 mb 0.00 in0.0 mm 0.00 in0.0 mm 0.00 in0.0 mm
03:25 AM 49.1°F9.5°C 39.4°F4.1°C 69% 4.2 mph E6.8 kmh E 11.4 mph18.3 kmh 30.44 in1030.8 mb 0.00 in0.0 mm 0.00 in0.0 mm 0.00 in0.0 mm
03:20 AM 49.1°F9.5°C 39.4°F4.1°C 69% 4.0 mph SE6.4 kmh SE 11.4 mph18.3 kmh 30.45 in1031.2 mb 0.00 in0.0 mm 0.00 in0.0 mm 0.00 in0.0 mm
03:15 AM 49.1°F9.5°C 39.4°F4.1°C 69% 3.9 mph WSW6.3 kmh WSW 7.6 mph12.2 kmh 30.45 in1031.2 mb 0.00 in0.0 mm 0.00 in0.0 mm 0.00 in0.0 mm
03:10 AM 49.1°F9.5°C 39.4°F4.1°C 69% 3.9 mph NNE6.3 kmh NNE 7.6 mph12.2 kmh 30.45 in1031.2 mb 0.00 in0.0 mm 0.00 in0.0 mm 0.00 in0.0 mm
03:05 AM 49.1°F9.5°C 39.4°F4.1°C 69% 3.7 mph E6.0 kmh E 7.6 mph12.2 kmh 30.45 in1031.2 mb 0.00 in0.0 mm 0.00 in0.0 mm 0.00 in0.0 mm
03:00 AM 49.1°F9.5°C 39.0°F3.9°C 68% 3.7 mph SE6.0 kmh SE 9.2 mph14.8 kmh 30.45 in1031.2 mb 0.00 in0.0 mm 0.00 in0.0 mm 0.00 in0.0 mm
02:55 AM 49.1°F9.5°C 39.0°F3.9°C 68% 3.6 mph SE5.8 kmh SE 9.2 mph14.8 kmh 30.45 in1031.2 mb 0.00 in0.0 mm 0.00 in0.0 mm 0.00 in0.0 mm
02:50 AM 49.3°F9.6°C 39.2°F4.0°C 68% 3.5 mph ESE5.6 kmh ESE 8.3 mph13.4 kmh 30.45 in1031.2 mb 0.00 in0.0 mm 0.00 in0.0 mm 0.00 in0.0 mm
02:45 AM 49.3°F9.6°C 39.2°F4.0°C 68% 3.5 mph NE5.6 kmh NE 8.3 mph13.4 kmh 30.45 in1031.2 mb 0.00 in0.0 mm 0.00 in0.0 mm 0.00 in0.0 mm
02:40 AM 49.3°F9.6°C 39.2°F4.0°C 68% 3.7 mph E6.0 kmh E 10.7 mph17.2 kmh 30.45 in1031.2 mb 0.00 in0.0 mm 0.00 in0.0 mm 0.00 in0.0 mm
02:35 AM 49.3°F9.6°C 38.8°F3.8°C 67% 4.0 mph SE6.4 kmh SE 10.7 mph17.2 kmh 30.45 in1031.2 mb 0.00 in0.0 mm 0.00 in0.0 mm 0.00 in0.0 mm
02:30 AM 49.3°F9.6°C 38.8°F3.8°C 67% 3.9 mph S6.3 kmh S 9.2 mph14.8 kmh 30.45 in1031.2 mb 0.00 in0.0 mm 0.00 in0.0 mm 0.00 in0.0 mm
02:25 AM 49.5°F9.7°C 39.0°F3.9°C 67% 4.1 mph SSE6.6 kmh SSE 9.2 mph14.8 kmh 30.46 in1031.5 mb 0.00 in0.0 mm 0.00 in0.0 mm 0.00 in0.0 mm
02:20 AM 49.5°F9.7°C 39.0°F3.9°C 67% 4.2 mph S6.8 kmh S 9.2 mph14.8 kmh 30.46 in1031.5 mb 0.00 in0.0 mm 0.00 in0.0 mm 0.00 in0.0 mm
02:15 AM 49.5°F9.7°C 38.6°F3.7°C 66% 4.1 mph SSE6.6 kmh SSE 8.3 mph13.4 kmh 30.46 in1031.5 mb 0.00 in0.0 mm 0.00 in0.0 mm 0.00 in0.0 mm
02:10 AM 49.5°F9.7°C 38.6°F3.7°C 66% 4.0 mph ESE6.4 kmh ESE 8.3 mph13.4 kmh 30.46 in1031.5 mb 0.00 in0.0 mm 0.00 in0.0 mm 0.00 in0.0 mm
02:05 AM 49.6°F9.8°C 38.8°F3.8°C 66% 3.7 mph ESE6.0 kmh ESE 6.9 mph11.1 kmh 30.46 in1031.5 mb 0.00 in0.0 mm 0.00 in0.0 mm 0.00 in0.0 mm
02:00 AM 49.8°F9.9°C 38.5°F3.6°C 65% 4.9 mph SE7.9 kmh SE 15.2 mph24.5 kmh 30.46 in1031.5 mb 0.00 in0.0 mm 0.00 in0.0 mm 0.00 in0.0 mm
01:55 AM 50.0°F10.0°C 38.7°F3.7°C 65% 7.0 mph S11.3 kmh S 16.8 mph27.0 kmh 30.47 in1031.8 mb 0.00 in0.0 mm 0.00 in0.0 mm 0.00 in0.0 mm
01:50 AM 50.0°F10.0°C 38.3°F3.5°C 64% 7.2 mph SSE11.6 kmh SSE 16.8 mph27.0 kmh 30.46 in1031.5 mb 0.00 in0.0 mm 0.00 in0.0 mm 0.00 in0.0 mm
01:45 AM 50.0°F10.0°C 38.3°F3.5°C 64% 7.3 mph S11.7 kmh S 19.7 mph31.7 kmh 30.46 in1031.5 mb 0.00 in0.0 mm 0.00 in0.0 mm 0.00 in0.0 mm
01:40 AM 50.0°F10.0°C 38.3°F3.5°C 64% 7.7 mph SSW12.4 kmh SSW 20.6 mph33.2 kmh 30.46 in1031.5 mb 0.00 in0.0 mm 0.00 in0.0 mm 0.00 in0.0 mm
01:35 AM 50.0°F10.0°C 38.3°F3.5°C 64% 7.1 mph S11.4 kmh S 20.6 mph33.2 kmh 30.46 in1031.5 mb 0.00 in0.0 mm 0.00 in0.0 mm 0.00 in0.0 mm
01:30 AM 50.0°F10.0°C 38.3°F3.5°C 64% 7.2 mph S11.6 kmh S 20.6 mph33.2 kmh 30.46 in1031.5 mb 0.00 in0.0 mm 0.00 in0.0 mm 0.00 in0.0 mm
01:25 AM 50.0°F10.0°C 38.3°F3.5°C 64% 7.7 mph S12.4 kmh S 19.0 mph30.6 kmh 30.47 in1031.8 mb 0.00 in0.0 mm 0.00 in0.0 mm 0.00 in0.0 mm
01:20 AM 50.0°F10.0°C 38.7°F3.7°C 65% 7.1 mph SE11.4 kmh SE 17.4 mph28.0 kmh 30.47 in1031.8 mb 0.00 in0.0 mm 0.00 in0.0 mm 0.00 in0.0 mm
01:15 AM 49.8°F9.9°C 38.5°F3.6°C 65% 7.1 mph SE11.4 kmh SE 16.8 mph27.0 kmh 30.47 in1031.8 mb 0.00 in0.0 mm 0.00 in0.0 mm 0.00 in0.0 mm
01:10 AM 49.8°F9.9°C 38.5°F3.6°C 65% 8.2 mph SSE13.2 kmh SSE 18.3 mph29.5 kmh 30.47 in1031.8 mb 0.00 in0.0 mm 0.00 in0.0 mm 0.00 in0.0 mm
01:05 AM 49.8°F9.9°C 38.5°F3.6°C 65% 8.9 mph SSE14.3 kmh SSE 18.3 mph29.5 kmh 30.47 in1031.8 mb 0.00 in0.0 mm 0.00 in0.0 mm 0.00 in0.0 mm
01:00 AM 49.8°F9.9°C 38.9°F3.8°C 66% 8.5 mph SE13.7 kmh SE 18.3 mph29.5 kmh 30.48 in1032.2 mb 0.00 in0.0 mm 0.00 in0.0 mm 0.00 in0.0 mm
12:55 AM 49.8°F9.9°C 38.9°F3.8°C 66% 6.9 mph E11.1 kmh E 18.3 mph29.5 kmh 30.47 in1031.8 mb 0.00 in0.0 mm 0.00 in0.0 mm 0.00 in0.0 mm
12:50 AM 49.6°F9.8°C 38.8°F3.8°C 66% 6.1 mph NE9.8 kmh NE 15.9 mph25.6 kmh 30.48 in1032.2 mb 0.00 in0.0 mm 0.00 in0.0 mm 0.00 in0.0 mm
12:45 AM 49.6°F9.8°C 38.8°F3.8°C 66% 6.4 mph E10.3 kmh E 17.4 mph28.0 kmh 30.47 in1031.8 mb 0.00 in0.0 mm 0.00 in0.0 mm 0.00 in0.0 mm
12:40 AM 49.6°F9.8°C 38.8°F3.8°C 66% 7.1 mph E11.4 kmh E 17.4 mph28.0 kmh 30.48 in1032.2 mb 0.00 in0.0 mm 0.00 in0.0 mm 0.00 in0.0 mm
12:35 AM 49.6°F9.8°C 39.1°F3.9°C 67% 7.6 mph E12.2 kmh E 17.4 mph28.0 kmh 30.48 in1032.2 mb 0.00 in0.0 mm 0.00 in0.0 mm 0.00 in0.0 mm
12:30 AM 49.6°F9.8°C 39.1°F3.9°C 67% 6.9 mph SE11.1 kmh SE 16.8 mph27.0 kmh 30.48 in1032.2 mb 0.00 in0.0 mm 0.00 in0.0 mm 0.00 in0.0 mm
12:25 AM 49.6°F9.8°C 38.8°F3.8°C 66% 5.5 mph SSE8.9 kmh SSE 15.2 mph24.5 kmh 30.48 in1032.2 mb 0.00 in0.0 mm 0.00 in0.0 mm 0.00 in0.0 mm
12:20 AM 49.8°F9.9°C 38.9°F3.8°C 66% 6.4 mph S10.3 kmh S 15.9 mph25.6 kmh 30.48 in1032.2 mb 0.00 in0.0 mm 0.00 in0.0 mm 0.00 in0.0 mm
12:15 AM 49.8°F9.9°C 38.9°F3.8°C 66% 7.3 mph S11.7 kmh S 15.9 mph25.6 kmh 30.48 in1032.2 mb 0.00 in0.0 mm 0.00 in0.0 mm 0.00 in0.0 mm
12:10 AM 50.0°F10.0°C 38.7°F3.7°C 65% 7.2 mph S11.6 kmh S 13.6 mph21.9 kmh 30.48 in1032.2 mb 0.00 in0.0 mm 0.00 in0.0 mm 0.00 in0.0 mm
12:05 AM 50.0°F10.0°C 38.7°F3.7°C 65% 7.3 mph SSW11.7 kmh SSW 15.2 mph24.5 kmh 30.48 in1032.2 mb 0.00 in0.0 mm 0.00 in0.0 mm 0.00 in0.0 mm
12:00 AM 50.0°F10.0°C 38.7°F3.7°C 65% 6.4 mph SSE10.3 kmh SSE 15.2 mph24.5 kmh 30.48 in1032.2 mb 0.00 in0.0 mm 0.00 in0.0 mm 0.00 in0.0 mm